Time;durP1;ratioP1;P1;durP2;ratioP2;P2;SDS_P1;SDS_P2;PMS_P1;PMS_P2;Temp;Humidity;BMP_temperature;BMP_pressure;BME280_temperature;BME280_humidity;BME280_pressure;Samples;Min_cycle;Max_cycle;Signal;HPM_P1;HPM_P2
2022/06/20 00:02:25;;;;;;;5.35;2.88;;;;;;;20.90;62.72;99891.78;5043503;28;20060;-68
2022/06/20 00:04:53;;;;;;;4.45;3.00;;;;;;;20.86;62.97;99895.97;5043406;28;20041;-67
2022/06/20 00:07:19;;;;;;;8.80;3.35;;;;;;;20.67;63.63;99893.25;5043227;28;20097;-67
2022/06/20 00:09:45;;;;;;;5.20;2.83;;;;;;;20.56;64.36;99882.41;5042941;28;20053;-68
2022/06/20 00:12:30;;;;;;;8.68;2.90;;;;;;;20.49;65.17;99887.88;5043162;28;20155;-67
2022/06/20 00:14:59;;;;;;;6.53;2.78;;;;;;;20.48;65.21;99888.09;5042048;28;20049;-67
2022/06/20 00:17:26;;;;;;;12.05;3.25;;;;;;;20.48;65.18;99883.53;5043076;28;20028;-67
2022/06/20 00:19:52;;;;;;;5.75;3.00;;;;;;;20.56;65.00;99890.50;5043052;28;20315;-68
2022/06/20 00:22:17;;;;;;;8.68;3.88;;;;;;;20.54;64.51;99868.38;5042976;28;20033;-68
2022/06/20 00:24:43;;;;;;;5.78;3.53;;;;;;;20.69;64.41;99885.78;5042924;28;20037;-67
2022/06/20 00:27:09;;;;;;;6.60;3.15;;;;;;;20.60;64.24;99880.91;5043095;28;20047;-68
2022/06/20 00:29:36;;;;;;;5.13;3.58;;;;;;;20.49;64.41;99881.66;5042808;28;20095;-68
2022/06/20 00:32:03;;;;;;;3.08;2.78;;;;;;;20.59;64.13;99879.28;5042950;28;20053;-67
2022/06/20 00:34:28;;;;;;;7.75;3.08;;;;;;;20.63;63.94;99872.41;5042900;28;20128;-67
2022/06/20 00:36:54;;;;;;;7.88;2.95;;;;;;;20.53;63.99;99883.69;5042884;28;20041;-68
2022/06/20 00:39:20;;;;;;;3.88;2.83;;;;;;;20.33;65.10;99878.47;5041186;28;20048;-68
2022/06/20 00:41:47;;;;;;;5.13;3.10;;;;;;;20.29;65.36;99879.16;5042618;28;20036;-68
2022/06/20 00:44:16;;;;;;;3.30;2.95;;;;;;;20.34;65.10;99873.94;5042522;28;20059;-68
2022/06/20 00:46:49;;;;;;;3.22;2.67;;;;;;;20.41;65.06;99872.03;5042706;28;20105;-68
2022/06/20 00:49:29;;;;;;;5.80;3.20;;;;;;;20.39;65.29;99874.94;5042745;28;20157;-68
2022/06/20 00:52:12;;;;;;;6.43;2.90;;;;;;;20.36;65.56;99872.66;5042616;28;20034;-67
2022/06/20 00:55:05;;;;;;;5.82;3.20;;;;;;;20.27;66.09;99871.31;5042377;28;20041;-67
2022/06/20 00:57:42;;;;;;;8.00;2.65;;;;;;;20.30;65.59;99860.09;5042420;28;20029;-68
2022/06/20 01:00:12;;;;;;;3.80;2.90;;;;;;;20.30;65.81;99862.78;5042564;28;20041;-67
2022/06/20 01:02:43;;;;;;;5.68;2.88;;;;;;;20.28;65.78;99864.88;5042412;28;20052;-67
2022/06/20 01:05:22;;;;;;;6.03;2.90;;;;;;;20.34;65.42;99861.31;5042435;28;20100;-67
2022/06/20 01:08:08;;;;;;;3.47;2.63;;;;;;;20.29;65.92;99860.31;5042410;28;20021;-67
2022/06/20 01:10:49;;;;;;;5.85;2.70;;;;;;;20.32;65.72;99859.88;5042234;28;20052;-67
2022/06/20 01:13:18;;;;;;;8.75;2.75;;;;;;;20.28;65.62;99859.50;5040821;28;20060;-67
2022/06/20 01:15:45;;;;;;;4.85;3.03;;;;;;;20.27;65.55;99865.94;5042148;28;20041;-67
2022/06/20 01:18:17;;;;;;;11.52;3.17;;;;;;;20.19;65.42;99843.88;5042122;28;20305;-67
2022/06/20 01:20:45;;;;;;;6.65;2.88;;;;;;;20.31;65.57;99856.38;5040988;28;20215;-67
2022/06/20 01:23:50;;;;;;;5.70;2.78;;;;;;;20.38;65.01;99846.38;5042382;28;20306;-67
2022/06/20 01:26:21;;;;;;;7.20;2.80;;;;;;;20.31;65.35;99850.16;5042056;28;20283;-68
2022/06/20 01:28:51;;;;;;;11.68;3.47;;;;;;;20.23;65.85;99847.78;5042137;28;20041;-67
2022/06/20 01:31:20;;;;;;;5.68;3.13;;;;;;;20.21;66.24;99848.00;5042162;28;20323;-67
2022/06/20 01:33:47;;;;;;;5.88;3.22;;;;;;;20.21;66.14;99844.47;5041891;28;20033;-67
2022/06/20 01:39:00;;;;;;;6.65;3.60;;;;;;;20.13;66.44;99842.06;5041590;28;20385;-67
2022/06/20 01:44:13;;;;;;;7.97;3.13;;;;;;;20.12;66.22;99848.50;5041962;28;20075;-67
2022/06/20 01:46:38;;;;;;;4.30;3.35;;;;;;;20.10;66.24;99846.03;5041998;28;20041;-67
2022/06/20 01:49:10;;;;;;;6.20;3.25;;;;;;;20.13;66.02;99842.91;5042144;28;20315;-67
2022/06/20 01:52:20;;;;;;;14.73;3.28;;;;;;;20.04;65.91;99844.22;5041998;28;20100;-67
2022/06/20 01:54:56;;;;;;;9.38;3.83;;;;;;;19.97;66.27;99838.09;5039786;28;20328;-67
2022/06/20 01:57:22;;;;;;;7.13;3.63;;;;;;;19.88;66.36;99837.56;5039826;28;20021;-67
2022/06/20 01:59:56;;;;;;;10.43;3.80;;;;;;;19.81;66.91;99846.72;5040898;28;20279;-67
2022/06/20 02:02:22;;;;;;;10.05;3.92;;;;;;;19.81;66.87;99844.03;5042023;28;20098;-67
2022/06/20 02:04:48;;;;;;;6.10;3.63;;;;;;;19.66;67.69;99837.09;5041771;28;20227;-67
2022/06/20 02:07:15;;;;;;;8.82;4.00;;;;;;;19.71;67.26;99837.25;5041693;28;20030;-67
2022/06/20 02:09:41;;;;;;;9.23;4.28;;;;;;;19.81;66.98;99841.34;5040280;28;20231;-67
2022/06/20 02:12:08;;;;;;;7.88;4.05;;;;;;;19.81;66.93;99838.66;5041595;28;20028;-68
2022/06/20 02:14:46;;;;;;;12.15;4.03;;;;;;;19.83;67.02;99836.56;5041316;28;20231;-67
2022/06/20 02:17:30;;;;;;;11.40;4.03;;;;;;;19.66;67.28;99828.19;5041778;28;20053;-67
2022/06/20 02:19:56;;;;;;;11.38;4.72;;;;;;;19.69;67.44;99831.28;5041732;28;20029;-68
2022/06/20 02:22:25;;;;;;;14.15;4.60;;;;;;;19.64;67.61;99830.28;5040465;28;20262;-67
2022/06/20 02:24:58;;;;;;;9.15;3.90;;;;;;;19.62;67.62;99832.38;5041553;28;20056;-67
2022/06/20 02:27:39;;;;;;;10.03;4.27;;;;;;;19.69;67.53;99833.13;5041640;28;20357;-67
2022/06/20 02:30:08;;;;;;;12.43;4.40;;;;;;;19.54;67.99;99833.47;5041599;28;20311;-68
2022/06/20 02:33:00;;;;;;;10.50;4.43;;;;;;;19.37;68.34;99819.72;5041573;28;20041;-67
2022/06/20 02:35:26;;;;;;;9.15;4.43;;;;;;;19.43;68.30;99836.81;5040569;28;20076;-67
2022/06/20 02:37:52;;;;;;;9.95;4.63;;;;;;;19.29;69.19;99828.03;5042399;28;20044;-67
2022/06/20 02:40:21;;;;;;;13.23;4.05;;;;;;;19.39;69.06;99830.22;5044602;28;20034;-68
2022/06/20 02:42:49;;;;;;;8.50;3.78;;;;;;;19.28;69.54;99821.00;5043670;28;20339;-67
2022/06/20 02:45:16;;;;;;;9.40;4.30;;;;;;;19.07;70.36;99824.03;5043833;28;20053;-67
2022/06/20 02:47:50;;;;;;;6.90;3.67;;;;;;;19.05;70.58;99818.88;5044668;28;20052;-67
2022/06/20 02:50:21;;;;;;;8.35;4.00;;;;;;;18.91;70.82;99828.03;5044816;28;20041;-67
2022/06/20 02:52:56;;;;;;;6.28;3.85;;;;;;;18.83;71.18;99822.91;5044698;28;20065;-67
2022/06/20 02:55:23;;;;;;;12.75;3.70;;;;;;;18.83;71.35;99820.25;5044709;28;20041;-67
2022/06/20 02:57:53;;;;;;;7.40;4.03;;;;;;;19.06;70.65;99828.56;5044628;28;20036;-67
2022/06/20 03:00:28;;;;;;;7.25;3.58;;;;;;;19.11;70.16;99826.06;5044712;28;20262;-67
2022/06/20 03:03:04;;;;;;;6.93;3.22;;;;;;;19.11;69.95;99831.44;5044505;28;20033;-67
2022/06/20 03:05:29;;;;;;;5.07;3.15;;;;;;;19.19;69.52;99841.09;5044655;28;20124;-67
2022/06/20 03:07:55;;;;;;;4.05;3.13;;;;;;;19.16;69.41;99838.84;5044441;28;20083;-67
2022/06/20 03:10:32;;;;;;;5.88;3.47;;;;;;;18.95;70.01;99834.63;5044126;28;20247;-67
2022/06/20 03:12:58;;;;;;;7.70;3.40;;;;;;;18.95;69.86;99804.28;5044091;28;20104;-67
2022/06/20 03:15:24;;;;;;;9.25;3.60;;;;;;;19.08;69.84;99839.91;5044553;28;20056;-68
2022/06/20 03:17:53;;;;;;;9.23;3.50;;;;;;;19.08;69.86;99828.38;5044434;28;20052;-67
2022/06/20 03:20:20;;;;;;;8.95;3.17;;;;;;;19.08;70.12;99829.19;5044388;28;20038;-67
2022/06/20 03:22:55;;;;;;;10.95;3.70;;;;;;;19.07;70.06;99827.53;5044382;28;20041;-67
2022/06/20 03:25:21;;;;;;;10.65;3.70;;;;;;;19.02;70.51;99832.72;5044327;28;20182;-67
2022/06/20 03:27:51;;;;;;;8.02;3.78;;;;;;;19.09;70.10;99841.56;5044041;28;20037;-67
2022/06/20 03:30:37;;;;;;;7.82;3.50;;;;;;;19.06;70.32;99833.94;5044110;28;20323;-67
2022/06/20 03:33:05;;;;;;;8.25;3.70;;;;;;;19.04;70.27;99825.28;5043797;28;20128;-67
2022/06/20 03:35:32;;;;;;;6.05;3.58;;;;;;;19.05;70.28;99815.38;5043979;28;20327;-67
2022/06/20 03:38:00;;;;;;;5.85;3.72;;;;;;;18.95;70.78;99829.25;5043785;28;20034;-67
2022/06/20 03:40:26;;;;;;;8.15;3.58;;;;;;;18.94;70.48;99827.59;5043556;28;20038;-67
2022/06/20 03:42:54;;;;;;;11.05;4.00;;;;;;;19.05;70.16;99826.09;5043789;28;20037;-68
2022/06/20 03:45:23;;;;;;;6.43;3.55;;;;;;;19.06;69.92;99825.06;5043820;28;20037;-67
2022/06/20 03:48:16;;;;;;;5.65;3.58;;;;;;;19.11;69.80;99825.25;5043768;28;20075;-67
2022/06/20 03:50:51;;;;;;;7.30;3.40;;;;;;;18.98;70.44;99834.19;5043540;28;20076;-67
2022/06/20 03:53:28;;;;;;;10.25;4.22;;;;;;;18.83;71.09;99816.72;5043708;28;20078;-67
2022/06/20 03:56:18;;;;;;;9.85;3.53;;;;;;;18.86;71.44;99829.72;5043764;28;20033;-67
2022/06/20 03:58:55;;;;;;;8.18;3.90;;;;;;;18.82;71.95;99823.97;5043599;28;20041;-67
2022/06/20 04:01:28;;;;;;;12.13;3.50;;;;;;;18.92;71.24;99827.00;5043818;28;20033;-67
2022/06/20 04:04:06;;;;;;;12.18;3.58;;;;;;;19.20;70.29;99810.53;5043388;28;20108;-67
2022/06/20 04:06:39;;;;;;;10.25;3.83;;;;;;;19.28;69.95;99815.63;5042346;28;20029;-68
2022/06/20 04:12:04;;;;;;;9.63;3.08;;;;;;;19.37;69.95;99814.34;5043470;28;20036;-67
2022/06/20 04:14:46;;;;;;;6.30;3.63;;;;;;;19.63;69.46;99824.09;5043044;28;20216;-67
2022/06/20 04:20:32;;;;;;;6.68;3.13;;;;;;;20.12;67.76;99833.19;5043165;28;20132;-67
2022/06/20 04:23:01;;;;;;;8.98;3.10;;;;;;;20.43;66.75;99824.22;5043083;28;20080;-67
2022/06/20 04:25:34;;;;;;;7.20;3.25;;;;;;;20.58;65.50;99824.66;5043027;28;20044;-68
2022/06/20 04:28:12;;;;;;;4.03;2.97;;;;;;;20.87;64.83;99824.94;5043074;28;20071;-67
2022/06/20 04:30:47;;;;;;;6.70;3.05;;;;;;;20.93;63.83;99824.84;5043079;28;20319;-67
2022/06/20 04:33:25;;;;;;;9.52;3.20;;;;;;;21.07;62.97;99819.28;5042777;28;20071;-67
2022/06/20 04:36:05;;;;;;;10.88;3.08;;;;;;;21.39;61.28;99819.91;5042974;28;20219;-67
2022/06/20 04:38:38;;;;;;;6.60;2.78;;;;;;;21.63;61.14;99816.19;5042655;28;20267;-68
2022/06/20 04:41:17;;;;;;;15.23;3.50;;;;;;;21.53;60.42;99822.16;5042961;28;20033;-68
2022/06/20 04:44:01;;;;;;;5.50;2.90;;;;;;;21.47;60.67;99824.94;5041379;28;20036;-67
2022/06/20 04:46:37;;;;;;;5.18;3.10;;;;;;;21.47;60.77;99820.38;5042724;28;20037;-67
2022/06/20 04:49:03;;;;;;;10.95;2.90;;;;;;;21.81;59.58;99809.88;5042783;28;20037;-67
2022/06/20 04:51:38;;;;;;;8.05;2.70;;;;;;;22.05;57.98;99810.75;5042674;28;20192;-67
2022/06/20 04:54:05;;;;;;;10.63;3.05;;;;;;;22.08;57.73;99815.69;5042440;28;20048;-68
2022/06/20 04:56:31;;;;;;;8.43;2.70;;;;;;;22.33;57.05;99816.25;5042657;28;20083;-67
2022/06/20 04:59:11;;;;;;;6.57;2.80;;;;;;;22.59;55.64;99802.22;5042352;28;20033;-67
2022/06/20 05:01:37;;;;;;;10.25;2.83;;;;;;;22.79;54.79;99803.69;5042439;28;20245;-68
2022/06/20 05:04:22;;;;;;;7.72;2.65;;;;;;;22.98;54.83;99805.22;5042565;28;20042;-68
2022/06/20 05:06:48;;;;;;;6.85;2.60;;;;;;;23.10;54.72;99799.75;5042421;28;20029;-68
2022/06/20 05:09:27;;;;;;;5.22;2.88;;;;;;;23.24;52.95;99798.38;5041892;28;20037;-67
2022/06/20 05:12:06;;;;;;;9.20;2.47;;;;;;;23.42;52.64;99798.16;5042316;28;20059;-68
2022/06/20 05:14:39;;;;;;;4.25;2.25;;;;;;;23.43;52.27;99797.09;5041897;28;20045;-67
2022/06/20 05:17:16;;;;;;;6.97;2.88;;;;;;;23.61;51.22;99792.53;5042402;28;20191;-68
2022/06/20 05:19:46;;;;;;;4.82;2.50;;;;;;;23.67;50.54;99796.97;5042172;28;20042;-68
2022/06/20 05:22:26;;;;;;;5.93;2.67;;;;;;;23.76;50.53;99798.19;5042251;28;20226;-68
2022/06/20 05:24:54;;;;;;;8.32;2.88;;;;;;;23.85;50.05;99799.41;5040913;28;20034;-68
2022/06/20 05:27:27;;;;;;;3.92;2.92;;;;;;;24.11;49.70;99798.75;5042162;28;20018;-68
2022/06/20 05:29:54;;;;;;;3.97;2.47;;;;;;;23.97;49.69;99799.34;5042241;28;20250;-68
2022/06/20 05:32:38;;;;;;;4.63;2.63;;;;;;;23.90;49.96;99807.59;5042094;28;20026;-68
2022/06/20 05:35:13;;;;;;;8.32;2.58;;;;;;;23.88;49.17;99802.44;5041995;28;20037;-68
2022/06/20 05:37:48;;;;;;;4.93;2.50;;;;;;;24.29;48.25;99803.06;5041938;28;20099;-68
2022/06/20 05:40:13;;;;;;;5.75;2.47;;;;;;;24.61;46.12;99802.41;5041818;28;20038;-67
2022/06/20 05:42:39;;;;;;;4.47;1.83;;;;;;;24.67;45.58;99796.78;5042031;28;20038;-68
2022/06/20 05:45:16;;;;;;;4.88;2.20;;;;;;;24.79;45.37;99797.47;5040877;28;20358;-68
2022/06/20 05:47:47;;;;;;;5.28;1.90;;;;;;;25.07;44.35;99799.19;5041936;28;20037;-68
2022/06/20 05:50:15;;;;;;;4.35;2.33;;;;;;;24.90;44.95;99801.09;5041979;28;20100;-68
2022/06/20 05:52:42;;;;;;;2.45;1.48;;;;;;;24.59;45.75;99789.13;5041714;28;20029;-68
2022/06/20 05:55:38;;;;;;;2.83;2.15;;;;;;;24.89;45.11;99795.94;5041868;28;20041;-68
2022/06/20 05:58:05;;;;;;;4.30;1.67;;;;;;;24.89;45.27;99794.06;5041795;28;20026;-68
2022/06/20 06:00:33;;;;;;;5.35;2.00;;;;;;;25.20;45.23;99789.00;5041881;28;20040;-68
2022/06/20 06:03:02;;;;;;;7.72;1.85;;;;;;;24.97;43.76;99787.38;5041849;28;20334;-68
2022/06/20 06:05:40;;;;;;;3.75;1.88;;;;;;;25.26;43.07;99782.56;5041802;28;20037;-67
2022/06/20 06:08:13;;;;;;;6.50;2.20;;;;;;;25.69;43.21;99778.88;5041518;28;20128;-67
2022/06/20 06:10:44;;;;;;;10.77;1.90;;;;;;;25.74;41.43;99771.59;5041410;28;20037;-68
2022/06/20 06:13:23;;;;;;;7.32;1.90;;;;;;;25.38;43.14;99784.03;5043080;28;20105;-68
2022/06/20 06:19:02;;;;;;;4.32;2.08;;;;;;;25.44;43.10;99774.03;5044737;28;20036;-68
2022/06/20 06:21:27;;;;;;;1.95;1.70;;;;;;;25.48;43.25;99768.91;5045459;28;20276;-68
2022/06/20 06:23:53;;;;;;;4.22;1.90;;;;;;;25.75;43.23;99766.97;5045501;28;20041;-68
2022/06/20 06:26:19;;;;;;;4.10;2.03;;;;;;;26.17;41.66;99775.13;5045373;28;20033;-68
2022/06/20 06:28:48;;;;;;;7.20;2.50;;;;;;;26.35;41.48;99771.19;5043841;28;20357;-68
2022/06/20 06:31:29;;;;;;;5.80;2.25;;;;;;;26.81;41.34;99768.63;5045268;28;20097;-68
2022/06/20 06:34:04;;;;;;;5.07;2.22;;;;;;;26.87;41.65;99762.13;5045182;28;20037;-68
2022/06/20 06:36:38;;;;;;;6.68;2.33;;;;;;;27.13;41.22;99758.41;5045107;28;20068;-68
2022/06/20 06:39:34;;;;;;;5.07;2.35;;;;;;;27.49;40.55;99753.78;5044538;28;20033;-68
2022/06/20 06:42:04;;;;;;;6.80;2.60;;;;;;;27.50;39.83;99749.16;5063689;28;20094;-68
2022/06/20 06:44:35;;;;;;;2.85;2.05;;;;;;;27.40;40.05;99750.00;5064303;28;20104;-68
2022/06/20 06:47:02;;;;;;;5.07;2.13;;;;;;;27.52;40.06;99753.25;5063911;28;20111;-68
2022/06/20 06:49:44;;;;;;;3.17;2.22;;;;;;;27.55;38.63;99749.97;5063895;28;20033;-68
2022/06/20 06:52:29;;;;;;;3.45;2.35;;;;;;;27.92;38.57;99748.88;5063786;28;20056;-68
2022/06/20 06:55:17;;;;;;;5.70;2.08;;;;;;;28.13;38.72;99742.28;5063699;28;20044;-68
2022/06/20 06:58:27;;;;;;;5.47;2.17;;;;;;;28.12;39.19;99737.13;5063340;28;20029;-68
2022/06/20 07:00:59;;;;;;;7.85;2.08;;;;;;;28.31;38.84;99735.47;5063250;28;20356;-68
2022/06/20 07:03:56;;;;;;;3.95;2.35;;;;;;;28.72;38.06;99730.59;5063574;28;20029;-68
2022/06/20 07:06:30;;;;;;;2.40;2.20;;;;;;;28.37;39.74;99726.16;5063550;28;20071;-68
2022/06/20 07:09:13;;;;;;;4.45;1.90;;;;;;;28.70;37.98;99715.63;5063396;28;20066;-68
2022/06/20 07:11:45;;;;;;;3.35;1.98;;;;;;;28.82;37.32;99718.84;5063390;28;20077;-68
2022/06/20 07:14:22;;;;;;;6.68;2.40;;;;;;;28.42;37.52;99720.69;5063214;28;20044;-68
2022/06/20 07:16:57;;;;;;;5.65;2.20;;;;;;;28.82;37.55;99710.66;5063228;28;20037;-68
2022/06/20 07:19:24;;;;;;;5.85;2.08;;;;;;;28.81;37.67;99719.94;5063606;28;20029;-68
2022/06/20 07:21:50;;;;;;;3.67;2.00;;;;;;;29.06;36.54;99702.59;5063238;28;20326;-68
2022/06/20 07:24:21;;;;;;;4.47;2.00;;;;;;;29.15;35.58;99706.38;5062700;28;20092;-68
2022/06/20 07:27:02;;;;;;;3.70;1.92;;;;;;;29.20;36.80;99707.16;5062064;28;20033;-68
2022/06/20 07:29:33;;;;;;;5.03;2.00;;;;;;;28.93;35.97;99698.63;5062927;28;20112;-68
2022/06/20 07:32:13;;;;;;;6.25;2.03;;;;;;;29.39;36.12;99695.53;5063026;28;20318;-68
2022/06/20 07:34:49;;;;;;;12.00;2.40;;;;;;;29.71;34.57;99701.25;5062836;28;20032;-68
2022/06/20 07:37:23;;;;;;;4.70;2.17;;;;;;;30.10;34.23;99697.56;5062796;28;20032;-68
2022/06/20 07:40:18;;;;;;;5.80;2.10;;;;;;;29.89;34.54;99696.94;5062471;28;20055;-68
2022/06/20 07:42:51;;;;;;;3.30;2.00;;;;;;;29.71;35.30;99690.31;5062596;28;20048;-68
2022/06/20 07:45:28;;;;;;;5.88;2.05;;;;;;;29.92;35.16;99693.63;5062857;28;20060;-68
2022/06/20 07:48:02;;;;;;;4.40;2.10;;;;;;;29.72;35.12;99681.03;5061526;28;20032;-68
2022/06/20 07:50:53;;;;;;;5.53;2.00;;;;;;;30.26;33.52;99690.81;5062820;28;20056;-68
2022/06/20 07:53:25;;;;;;;3.70;1.90;;;;;;;30.20;34.37;99685.72;5062662;28;20199;-68
2022/06/20 07:55:57;;;;;;;6.82;2.00;;;;;;;30.64;33.74;99683.50;5062645;28;20033;-68
2022/06/20 07:58:28;;;;;;;2.13;1.83;;;;;;;30.41;33.22;99673.41;5062235;28;20071;-68
2022/06/20 08:00:55;;;;;;;4.13;1.80;;;;;;;30.10;34.21;99689.34;5062491;28;20082;-68
2022/06/20 08:03:31;;;;;;;2.60;1.85;;;;;;;30.20;35.01;99672.88;5062404;28;20020;-68
2022/06/20 08:06:02;;;;;;;3.60;1.88;;;;;;;30.56;33.77;99659.53;5062701;28;20032;-68
2022/06/20 08:08:36;;;;;;;3.55;2.20;;;;;;;30.98;33.62;99664.09;5061989;28;20196;-68
2022/06/20 08:11:10;;;;;;;5.18;1.73;;;;;;;31.12;32.87;99662.22;5062272;28;20319;-68
2022/06/20 08:13:46;;;;;;;4.82;2.33;;;;;;;30.75;33.52;99662.28;5061914;28;20319;-68
2022/06/20 08:16:21;;;;;;;6.65;2.08;;;;;;;30.68;34.36;99656.38;5062256;28;20099;-68
2022/06/20 08:18:47;;;;;;;5.00;1.90;;;;;;;30.70;34.44;99654.16;5062172;28;20029;-68
2022/06/20 08:21:28;;;;;;;4.22;2.40;;;;;;;30.61;34.25;99661.41;5062198;28;20071;-68
2022/06/20 08:24:04;;;;;;;3.38;2.20;;;;;;;31.16;32.56;99647.97;5061795;28;20128;-68
2022/06/20 08:26:33;;;;;;;6.07;2.25;;;;;;;31.16;33.64;99653.44;5061926;28;20025;-68
2022/06/20 08:29:06;;;;;;;4.30;1.83;;;;;;;31.08;32.71;99642.03;5062002;28;20033;-68
2022/06/20 08:31:36;;;;;;;6.28;1.90;;;;;;;31.19;32.38;99648.19;5062196;28;20036;-68
2022/06/20 08:34:14;;;;;;;3.25;2.17;;;;;;;31.29;32.18;99645.28;5061635;28;20043;-68
2022/06/20 08:36:58;;;;;;;4.25;2.15;;;;;;;30.90;32.96;99645.63;5061053;28;20051;-68
2022/06/20 08:39:38;;;;;;;;;;;;;;;31.21;31.17;99647.88;5061660;28;20069;-68
2022/06/20 08:42:28;;;;;;;4.20;1.85;;;;;;;31.04;31.03;99638.28;5061697;28;20031;-68
2022/06/20 08:45:05;;;;;;;4.97;2.35;;;;;;;31.11;31.95;99638.72;5061584;28;20032;-68
2022/06/20 08:47:48;;;;;;;3.67;1.60;;;;;;;31.06;30.45;99640.72;5061395;28;20064;-68
2022/06/20 08:50:45;;;;;;;8.25;1.77;;;;;;;31.13;30.52;99641.16;5061691;28;20406;-68
2022/06/20 08:53:48;;;;;;;2.15;1.80;;;;;;;31.12;31.21;99636.78;5061259;28;20045;-68
2022/06/20 08:56:16;;;;;;;4.20;1.67;;;;;;;31.39;30.00;99628.69;5061594;28;20099;-68
2022/06/20 08:59:10;;;;;;;3.80;1.55;;;;;;;31.01;31.63;99636.16;5061346;28;20052;-68
2022/06/20 09:01:54;;;;;;;2.60;1.63;;;;;;;31.48;30.58;99641.66;5040602;28;20091;-68
2022/06/20 09:05:15;;;;;;;4.38;1.67;;;;;;;31.21;30.67;99634.19;5041740;28;20056;-68
2022/06/20 09:07:49;;;;;;;2.33;1.67;;;;;;;31.41;29.50;99644.81;5018676;28;20049;-68
2022/06/20 09:11:03;;;;;;;3.97;1.58;;;;;;;31.32;30.77;99625.53;5041089;28;20033;-68
2022/06/20 09:13:50;;;;;;;6.72;1.45;;;;;;;30.90;29.39;99634.69;5022290;28;20049;-68
2022/06/20 09:16:16;;;;;;;3.50;1.70;;;;;;;31.30;29.07;99632.44;5041447;28;20036;-68
2022/06/20 09:18:57;;;;;;;2.85;1.90;;;;;;;31.48;29.88;99628.00;5041381;28;20025;-68
2022/06/20 09:21:37;;;;;;;5.70;2.00;;;;;;;31.56;29.29;99619.06;5041423;28;20029;-68
2022/06/20 09:24:18;;;;;;;7.13;1.52;;;;;;;31.73;28.83;99619.31;5041223;28;20203;-68
2022/06/20 09:27:00;;;;;;;3.05;1.55;;;;;;;31.87;26.63;99622.03;5041294;28;20176;-68
2022/06/20 09:29:45;;;;;;;2.50;1.25;;;;;;;31.98;26.60;99618.78;5041364;28;20032;-68
2022/06/20 09:32:42;;;;;;;1.90;1.13;;;;;;;31.92;26.57;99608.22;5041147;28;20089;-68
2022/06/20 09:35:27;;;;;;;3.30;1.17;;;;;;;32.10;25.98;99607.28;5040627;28;20061;-68
2022/06/20 09:38:22;;;;;;;2.30;1.33;;;;;;;31.92;24.40;99600.03;5039913;28;20029;-68
2022/06/20 09:41:06;;;;;;;2.35;1.20;;;;;;;31.53;25.20;99608.72;5041015;28;20029;-68
2022/06/20 09:43:41;;;;;;;;;;;;;;;31.59;24.90;99597.38;5041634;28;20025;-68
2022/06/20 09:46:15;;;;;;;;;;;;;;;31.62;22.72;99598.69;5041631;28;19924;-68
2022/06/20 09:49:18;;;;;;;1.67;1.02;;;;;;;31.41;25.77;99599.09;5044960;28;19920;-68
2022/06/20 09:51:55;;;;;;;3.22;1.45;;;;;;;31.25;24.73;99597.78;5045145;28;20038;-68
2022/06/20 09:54:50;;;;;;;1.33;0.90;;;;;;;31.14;24.79;99588.06;5045071;28;20214;-68
2022/06/20 09:57:36;;;;;;;4.70;1.10;;;;;;;31.13;25.01;99590.00;5043963;28;20049;-68
2022/06/20 10:00:18;;;;;;;3.35;1.77;;;;;;;31.08;25.14;99594.75;5044927;28;20049;-67
2022/06/20 10:03:07;;;;;;;2.80;1.02;;;;;;;31.06;23.56;99586.84;5044611;28;20079;-68
2022/06/20 10:05:53;;;;;;;3.05;1.00;;;;;;;31.05;24.84;99595.34;5044903;28;20041;-68
2022/06/20 10:08:43;;;;;;;1.60;1.02;;;;;;;30.95;24.53;99585.41;5044644;28;20076;-68
2022/06/20 10:11:11;;;;;;;1.95;1.25;;;;;;;30.79;24.88;99584.03;5043481;28;20228;-68
2022/06/20 10:13:49;;;;;;;6.97;1.33;;;;;;;30.35;25.39;99578.97;5044245;28;20025;-68
2022/06/20 10:16:36;;;;;;;4.07;1.30;;;;;;;30.36;26.29;99573.22;5044720;28;20037;-68
2022/06/20 10:19:09;;;;;;;4.43;1.27;;;;;;;30.08;25.00;99565.97;5044769;28;20045;-68
2022/06/20 10:21:35;;;;;;;5.38;1.45;;;;;;;29.94;27.29;99562.31;5045060;28;20319;-68
2022/06/20 10:24:30;;;;;;;2.33;1.40;;;;;;;29.82;28.24;99565.47;5044555;28;20040;-68
2022/06/20 10:27:04;;;;;;;3.33;1.35;;;;;;;30.03;27.22;99555.94;5043320;28;20449;-68
2022/06/20 10:29:37;;;;;;;1.73;1.13;;;;;;;30.21;26.50;99564.44;5044201;28;20056;-68
2022/06/20 10:32:19;;;;;;;3.17;1.40;;;;;;;30.18;26.58;99558.47;5044251;28;20045;-68
2022/06/20 10:35:16;;;;;;;3.08;1.40;;;;;;;30.19;25.90;99559.28;5044456;28;20038;-68
2022/06/20 10:38:01;;;;;;;3.17;1.15;;;;;;;30.17;24.62;99556.84;5043809;28;20065;-68
2022/06/20 10:40:45;;;;;;;2.35;1.02;;;;;;;30.28;23.34;99548.50;5043909;28;20037;-68
2022/06/20 10:43:21;;;;;;;2.45;1.35;;;;;;;30.36;24.82;99559.56;5044193;28;20104;-69
2022/06/20 10:46:05;;;;;;;2.60;1.02;;;;;;;30.04;24.16;99563.00;5044210;28;20040;-68
2022/06/20 10:48:52;;;;;;;3.28;1.13;;;;;;;29.64;24.42;99558.06;5044097;28;20033;-68
2022/06/20 10:51:40;;;;;;;2.28;1.30;;;;;;;29.78;24.36;99546.16;5043912;28;20044;-68
2022/06/20 10:54:26;;;;;;;2.88;1.05;;;;;;;29.60;24.37;99541.47;5043616;28;20084;-68
2022/06/20 10:57:10;;;;;;;3.42;1.15;;;;;;;29.64;24.95;99539.78;5043879;28;20041;-67
2022/06/20 10:59:44;;;;;;;2.13;1.02;;;;;;;29.67;26.24;99531.00;5042880;28;20044;-68
2022/06/20 11:02:31;;;;;;;2.97;1.40;;;;;;;29.80;25.00;99535.75;5043793;28;20029;-68
2022/06/20 11:05:16;;;;;;;1.98;1.23;;;;;;;29.81;25.05;99533.84;5043696;28;20033;-68
2022/06/20 11:07:49;;;;;;;2.47;1.20;;;;;;;29.80;25.69;99526.75;5043621;28;20275;-68
2022/06/20 11:10:38;;;;;;;9.40;1.55;;;;;;;29.75;26.67;99519.44;5043331;28;20036;-68
2022/06/20 11:13:16;;;;;;;2.05;1.25;;;;;;;29.52;25.86;99525.75;5043168;28;20044;-67
2022/06/20 11:15:53;;;;;;;4.47;1.20;;;;;;;29.53;26.05;99519.19;5043406;28;20075;-68
2022/06/20 11:18:37;;;;;;;3.67;1.48;;;;;;;29.72;28.08;99522.75;5043435;28;20036;-68
2022/06/20 11:21:03;;;;;;;;;;;;;;;29.42;26.79;99510.28;5044060;28;20084;-68
2022/06/20 11:23:43;;;;;;;6.93;1.40;;;;;;;29.30;25.97;99514.53;5043579;28;19960;-68
2022/06/20 11:26:23;;;;;;;2.03;1.20;;;;;;;29.14;27.24;99498.34;5043318;28;20040;-68
2022/06/20 11:28:59;;;;;;;4.05;1.20;;;;;;;29.09;26.89;99512.00;5043322;28;20028;-68
2022/06/20 11:32:18;;;;;;;2.70;1.30;;;;;;;28.82;27.78;99503.56;5043300;28;20059;-68
2022/06/20 11:35:26;;;;;;;5.72;1.30;;;;;;;28.62;26.73;99510.00;5040850;28;20045;-68
2022/06/20 11:38:25;;;;;;;2.22;1.20;;;;;;;28.53;27.45;99500.81;5040690;28;20036;-68
2022/06/20 11:40:57;;;;;;;3.97;1.23;;;;;;;28.71;28.33;99494.66;5042940;28;20238;-68
2022/06/20 11:43:41;;;;;;;2.30;1.40;;;;;;;28.85;27.09;99498.38;5042840;28;20037;-68
2022/06/20 11:46:26;;;;;;;;;;;;;;;29.12;27.76;99499.72;5043641;28;20243;-68
2022/06/20 11:49:13;;;;;;;6.05;1.15;;;;;;;29.52;26.81;99498.47;5043184;28;20000;-68
2022/06/20 11:51:53;;;;;;;1.60;1.20;;;;;;;29.51;27.66;99484.03;5042872;28;20335;-68
2022/06/20 11:54:37;;;;;;;1.30;0.90;;;;;;;29.45;28.52;99492.56;5042846;28;20033;-68
2022/06/20 11:57:09;;;;;;;;;;;;;;;29.51;27.83;99484.03;5043469;28;20323;-68
2022/06/20 11:59:41;;;;;;;3.85;1.30;;;;;;;29.66;27.62;99482.19;5041380;28;19917;-68
2022/06/20 12:02:44;;;;;;;2.35;1.58;;;;;;;29.38;26.91;99483.91;5042657;28;20040;-68
2022/06/20 12:05:18;;;;;;;3.13;1.20;;;;;;;29.55;26.82;99473.34;5042606;28;20041;-68
2022/06/20 12:07:50;;;;;;;2.05;1.38;;;;;;;29.71;27.23;99466.56;5042318;28;20029;-68
2022/06/20 12:10:32;;;;;;;4.70;1.30;;;;;;;29.85;27.44;99458.44;5042134;28;20068;-68
2022/06/20 12:13:19;;;;;;;1.10;1.10;;;;;;;30.12;25.62;99457.78;5042082;28;20048;-68
2022/06/20 12:15:59;;;;;;;1.40;1.02;;;;;;;30.24;25.28;99460.06;5042352;28;20044;-68
2022/06/20 12:24:22;;;;;;;1.52;1.27;;;;;;;29.86;26.90;99447.22;5041570;28;20056;-68
2022/06/20 12:26:49;;;;;;;3.85;1.08;;;;;;;29.94;26.29;99453.13;5040361;28;20029;-68
2022/06/20 12:29:18;;;;;;;1.55;1.20;;;;;;;29.97;26.05;99442.41;5041702;28;20017;-68
2022/06/20 12:32:00;;;;;;;1.48;1.25;;;;;;;30.08;25.39;99445.84;5040355;28;20235;-68
2022/06/20 12:34:49;;;;;;;3.00;1.23;;;;;;;30.03;26.35;99444.00;5039853;28;20037;-68
2022/06/20 12:37:25;;;;;;;3.03;1.30;;;;;;;30.06;26.48;99439.84;5040461;28;20068;-68
2022/06/20 12:40:02;;;;;;;3.42;0.93;;;;;;;30.25;26.55;99435.19;5040465;28;20037;-68